Terminal Aerodrome Forecast
Issued by NWS

Home | Current Version | Previous Version | Text Only | Print | Product List | Glossary On
Versions: 1 2 3 4 5 6 7 8 9 10 11 12 13 14 15 16 17 18 19 20 21 22 23 24 25 26 27 28 29 30 31 32 33 34 35
000
FTUS43 KGLD 041132
TAFMCK
TAF
KMCK 041132Z 0412/0512 07010KT P6SM SCT030 OVC100
     FM041800 04011KT P6SM VCTS OVC025CB
     FM050000 04010KT P6SM BKN020
     FM050800 05009KT 6SM -SHRA BR OVC007
     FM051100 08008KT 3SM -SHRA OVC005=

USA.gov is the U.S. government's official web portal to all federal, state and local government web resources and services.